<?xml version="1.0" encoding="UTF-8" standalone="no" ?>
<gpx xmlns="http://www.topografix.com/GPX/1/1" xmlns:xsi="http://www.w3.org/2001/XMLSchema-instance" xsi:schemaLocation="http://www.topografix.com/GPX/1/1 http://www.topografix.com/GPX/1/1/gpx.xsd" version="1.1" creator="VisuGPX - https://www.visugpx.com">
  <metadata>
    <name>Breitenbike 3</name>
  </metadata>
  <trk>
    <name><![CDATA[5958539-Breitenbike 3]]></name>
    <trkseg>
      <trkpt lat="48.0242" lon="7.10017">
        <ele>430</ele>
        <time>2019-05-06T12:24:22Z</time>
      </trkpt>
      <trkpt lat="48.02363" lon="7.10167">
        <ele>439</ele>
        <time>2019-05-06T12:25:22Z</time>
      </trkpt>
      <trkpt lat="48.02392" lon="7.10279">
        <ele>440</ele>
        <time>2019-05-06T12:26:22Z</time>
      </trkpt>
      <trkpt lat="48.02463" lon="7.10339">
        <ele>436</ele>
        <time>2019-05-06T12:27:22Z</time>
      </trkpt>
      <trkpt lat="48.02573" lon="7.10773">
        <ele>441</ele>
        <time>2019-05-06T12:28:22Z</time>
      </trkpt>
      <trkpt lat="48.02659" lon="7.11107">
        <ele>465</ele>
        <time>2019-05-06T12:29:22Z</time>
      </trkpt>
      <trkpt lat="48.02739" lon="7.11652">
        <ele>506</ele>
        <time>2019-05-06T12:30:22Z</time>
      </trkpt>
      <trkpt lat="48.02558" lon="7.11159">
        <ele>524</ele>
        <time>2019-05-06T12:31:22Z</time>
      </trkpt>
      <trkpt lat="48.02415" lon="7.10893">
        <ele>536</ele>
        <time>2019-05-06T12:32:22Z</time>
      </trkpt>
      <trkpt lat="48.02248" lon="7.10764">
        <ele>546</ele>
        <time>2019-05-06T12:33:22Z</time>
      </trkpt>
      <trkpt lat="48.02397" lon="7.11039">
        <ele>572</ele>
        <time>2019-05-06T12:34:22Z</time>
      </trkpt>
      <trkpt lat="48.02412" lon="7.11232">
        <ele>581</ele>
        <time>2019-05-06T12:35:22Z</time>
      </trkpt>
      <trkpt lat="48.02472" lon="7.11412">
        <ele>576</ele>
        <time>2019-05-06T12:36:22Z</time>
      </trkpt>
      <trkpt lat="48.02504" lon="7.11618">
        <ele>595</ele>
        <time>2019-05-06T12:37:22Z</time>
      </trkpt>
      <trkpt lat="48.02492" lon="7.11755">
        <ele>600</ele>
        <time>2019-05-06T12:38:22Z</time>
      </trkpt>
      <trkpt lat="48.02472" lon="7.11824">
        <ele>599</ele>
        <time>2019-05-06T12:39:22Z</time>
      </trkpt>
      <trkpt lat="48.02449" lon="7.11648">
        <ele>610</ele>
        <time>2019-05-06T12:40:22Z</time>
      </trkpt>
      <trkpt lat="48.02297" lon="7.11305">
        <ele>624</ele>
        <time>2019-05-06T12:41:22Z</time>
      </trkpt>
      <trkpt lat="48.02392" lon="7.11601">
        <ele>623</ele>
        <time>2019-05-06T12:42:22Z</time>
      </trkpt>
      <trkpt lat="48.02395" lon="7.11682">
        <ele>617</ele>
        <time>2019-05-06T12:43:22Z</time>
      </trkpt>
      <trkpt lat="48.02291" lon="7.11712">
        <ele>620</ele>
        <time>2019-05-06T12:44:22Z</time>
      </trkpt>
      <trkpt lat="48.02116" lon="7.11768">
        <ele>637</ele>
        <time>2019-05-06T12:45:22Z</time>
      </trkpt>
      <trkpt lat="48.02059" lon="7.11901">
        <ele>631</ele>
        <time>2019-05-06T12:46:22Z</time>
      </trkpt>
      <trkpt lat="48.02024" lon="7.12107">
        <ele>664</ele>
        <time>2019-05-06T12:47:22Z</time>
      </trkpt>
      <trkpt lat="48.0197" lon="7.12296">
        <ele>697</ele>
        <time>2019-05-06T12:48:22Z</time>
      </trkpt>
      <trkpt lat="48.0182" lon="7.12425">
        <ele>677</ele>
        <time>2019-05-06T12:49:22Z</time>
      </trkpt>
      <trkpt lat="48.0166" lon="7.12446">
        <ele>683</ele>
        <time>2019-05-06T12:50:22Z</time>
      </trkpt>
      <trkpt lat="48.01531" lon="7.1239">
        <ele>682</ele>
        <time>2019-05-06T12:51:22Z</time>
      </trkpt>
      <trkpt lat="48.01473" lon="7.12275">
        <ele>710</ele>
        <time>2019-05-06T12:52:22Z</time>
      </trkpt>
      <trkpt lat="48.01663" lon="7.12378">
        <ele>706</ele>
        <time>2019-05-06T12:53:22Z</time>
      </trkpt>
      <trkpt lat="48.01795" lon="7.123">
        <ele>716</ele>
        <time>2019-05-06T12:54:22Z</time>
      </trkpt>
      <trkpt lat="48.01881" lon="7.12292">
        <ele>710</ele>
        <time>2019-05-06T12:55:22Z</time>
      </trkpt>
      <trkpt lat="48.01798" lon="7.12253">
        <ele>725</ele>
        <time>2019-05-06T12:56:22Z</time>
      </trkpt>
      <trkpt lat="48.01634" lon="7.12275">
        <ele>729</ele>
        <time>2019-05-06T12:57:22Z</time>
      </trkpt>
      <trkpt lat="48.0145" lon="7.12163">
        <ele>750</ele>
        <time>2019-05-06T12:58:22Z</time>
      </trkpt>
      <trkpt lat="48.01226" lon="7.1218">
        <ele>745</ele>
        <time>2019-05-06T12:59:22Z</time>
      </trkpt>
      <trkpt lat="48.01152" lon="7.12283">
        <ele>742</ele>
        <time>2019-05-06T13:00:22Z</time>
      </trkpt>
      <trkpt lat="48.0108" lon="7.12665">
        <ele>728</ele>
        <time>2019-05-06T13:01:22Z</time>
      </trkpt>
      <trkpt lat="48.01232" lon="7.12682">
        <ele>739</ele>
        <time>2019-05-06T13:02:22Z</time>
      </trkpt>
      <trkpt lat="48.01324" lon="7.12747">
        <ele>750</ele>
        <time>2019-05-06T13:03:22Z</time>
      </trkpt>
      <trkpt lat="48.01376" lon="7.12905">
        <ele>761</ele>
        <time>2019-05-06T13:04:22Z</time>
      </trkpt>
      <trkpt lat="48.01355" lon="7.1309">
        <ele>778</ele>
        <time>2019-05-06T13:05:22Z</time>
      </trkpt>
      <trkpt lat="48.01384" lon="7.13154">
        <ele>782</ele>
        <time>2019-05-06T13:06:22Z</time>
      </trkpt>
      <trkpt lat="48.01576" lon="7.13206">
        <ele>798</ele>
        <time>2019-05-06T13:07:22Z</time>
      </trkpt>
      <trkpt lat="48.0166" lon="7.13159">
        <ele>784</ele>
        <time>2019-05-06T13:08:22Z</time>
      </trkpt>
      <trkpt lat="48.01832" lon="7.13197">
        <ele>771</ele>
        <time>2019-05-06T13:09:22Z</time>
      </trkpt>
      <trkpt lat="48.01944" lon="7.13146">
        <ele>752</ele>
        <time>2019-05-06T13:10:22Z</time>
      </trkpt>
      <trkpt lat="48.02151" lon="7.1309">
        <ele>729</ele>
        <time>2019-05-06T13:11:22Z</time>
      </trkpt>
      <trkpt lat="48.02271" lon="7.1312">
        <ele>722</ele>
        <time>2019-05-06T13:12:22Z</time>
      </trkpt>
      <trkpt lat="48.02176" lon="7.13532">
        <ele>772</ele>
        <time>2019-05-06T13:13:22Z</time>
      </trkpt>
      <trkpt lat="48.02171" lon="7.13665">
        <ele>756</ele>
        <time>2019-05-06T13:14:22Z</time>
      </trkpt>
      <trkpt lat="48.02176" lon="7.13742">
        <ele>741</ele>
        <time>2019-05-06T13:15:22Z</time>
      </trkpt>
      <trkpt lat="48.02217" lon="7.13712">
        <ele>741</ele>
        <time>2019-05-06T13:16:22Z</time>
      </trkpt>
      <trkpt lat="48.02196" lon="7.13794">
        <ele>732</ele>
        <time>2019-05-06T13:17:22Z</time>
      </trkpt>
      <trkpt lat="48.02073" lon="7.13768">
        <ele>737</ele>
        <time>2019-05-06T13:18:22Z</time>
      </trkpt>
      <trkpt lat="48.01984" lon="7.13751">
        <ele>746</ele>
        <time>2019-05-06T13:19:22Z</time>
      </trkpt>
      <trkpt lat="48.01889" lon="7.13682">
        <ele>768</ele>
        <time>2019-05-06T13:20:22Z</time>
      </trkpt>
      <trkpt lat="48.01688" lon="7.13802">
        <ele>764</ele>
        <time>2019-05-06T13:21:22Z</time>
      </trkpt>
      <trkpt lat="48.01493" lon="7.14">
        <ele>769</ele>
        <time>2019-05-06T13:22:22Z</time>
      </trkpt>
      <trkpt lat="48.01318" lon="7.14043">
        <ele>787</ele>
        <time>2019-05-06T13:23:22Z</time>
      </trkpt>
      <trkpt lat="48.0122" lon="7.13965">
        <ele>807</ele>
        <time>2019-05-06T13:24:22Z</time>
      </trkpt>
      <trkpt lat="48.01068" lon="7.1397">
        <ele>812</ele>
        <time>2019-05-06T13:25:22Z</time>
      </trkpt>
      <trkpt lat="48.00876" lon="7.14">
        <ele>822</ele>
        <time>2019-05-06T13:26:22Z</time>
      </trkpt>
      <trkpt lat="48.0079" lon="7.14249">
        <ele>830</ele>
        <time>2019-05-06T13:27:22Z</time>
      </trkpt>
      <trkpt lat="48.00902" lon="7.14377">
        <ele>812</ele>
        <time>2019-05-06T13:28:22Z</time>
      </trkpt>
      <trkpt lat="48.00953" lon="7.14571">
        <ele>818</ele>
        <time>2019-05-06T13:29:22Z</time>
      </trkpt>
      <trkpt lat="48.01266" lon="7.14686">
        <ele>778</ele>
        <time>2019-05-06T13:30:22Z</time>
      </trkpt>
      <trkpt lat="48.01272" lon="7.14755">
        <ele>777</ele>
        <time>2019-05-06T13:31:22Z</time>
      </trkpt>
      <trkpt lat="48.01088" lon="7.14927">
        <ele>800</ele>
        <time>2019-05-06T13:32:22Z</time>
      </trkpt>
      <trkpt lat="48.01011" lon="7.14983">
        <ele>819</ele>
        <time>2019-05-06T13:33:22Z</time>
      </trkpt>
      <trkpt lat="48.00922" lon="7.15274">
        <ele>831</ele>
        <time>2019-05-06T13:34:22Z</time>
      </trkpt>
      <trkpt lat="48.00813" lon="7.1509">
        <ele>845</ele>
        <time>2019-05-06T13:35:22Z</time>
      </trkpt>
      <trkpt lat="48.00819" lon="7.14678">
        <ele>856</ele>
        <time>2019-05-06T13:36:22Z</time>
      </trkpt>
      <trkpt lat="48.00669" lon="7.14528">
        <ele>875</ele>
        <time>2019-05-06T13:37:22Z</time>
      </trkpt>
      <trkpt lat="48.00658" lon="7.1439">
        <ele>878</ele>
        <time>2019-05-06T13:38:22Z</time>
      </trkpt>
      <trkpt lat="48.00606" lon="7.14107">
        <ele>893</ele>
        <time>2019-05-06T13:39:22Z</time>
      </trkpt>
      <trkpt lat="48.00494" lon="7.13802">
        <ele>912</ele>
        <time>2019-05-06T13:40:22Z</time>
      </trkpt>
      <trkpt lat="48.0044" lon="7.1348">
        <ele>896</ele>
        <time>2019-05-06T13:41:22Z</time>
      </trkpt>
      <trkpt lat="48.0023" lon="7.13253">
        <ele>905</ele>
        <time>2019-05-06T13:42:22Z</time>
      </trkpt>
      <trkpt lat="48.00175" lon="7.1327">
        <ele>920</ele>
        <time>2019-05-06T13:43:22Z</time>
      </trkpt>
      <trkpt lat="47.99845" lon="7.12965">
        <ele>950</ele>
        <time>2019-05-06T13:44:22Z</time>
      </trkpt>
      <trkpt lat="47.99658" lon="7.1282">
        <ele>953</ele>
        <time>2019-05-06T13:45:22Z</time>
      </trkpt>
      <trkpt lat="47.99796" lon="7.12678">
        <ele>935</ele>
        <time>2019-05-06T13:46:22Z</time>
      </trkpt>
      <trkpt lat="47.99848" lon="7.12498">
        <ele>942</ele>
        <time>2019-05-06T13:47:22Z</time>
      </trkpt>
      <trkpt lat="47.99905" lon="7.12266">
        <ele>938</ele>
        <time>2019-05-06T13:48:22Z</time>
      </trkpt>
      <trkpt lat="47.99845" lon="7.12172">
        <ele>930</ele>
        <time>2019-05-06T13:49:22Z</time>
      </trkpt>
      <trkpt lat="47.99793" lon="7.12064">
        <ele>918</ele>
        <time>2019-05-06T13:50:22Z</time>
      </trkpt>
      <trkpt lat="47.99762" lon="7.1197">
        <ele>913</ele>
        <time>2019-05-06T13:51:22Z</time>
      </trkpt>
      <trkpt lat="47.99759" lon="7.11897">
        <ele>906</ele>
        <time>2019-05-06T13:52:22Z</time>
      </trkpt>
      <trkpt lat="47.99762" lon="7.11854">
        <ele>904</ele>
        <time>2019-05-06T13:53:22Z</time>
      </trkpt>
      <trkpt lat="47.99782" lon="7.11815">
        <ele>902</ele>
        <time>2019-05-06T13:54:22Z</time>
      </trkpt>
      <trkpt lat="47.99859" lon="7.11751">
        <ele>899</ele>
        <time>2019-05-06T13:55:22Z</time>
      </trkpt>
      <trkpt lat="47.99923" lon="7.11725">
        <ele>898</ele>
        <time>2019-05-06T13:56:22Z</time>
      </trkpt>
      <trkpt lat="48.00023" lon="7.1173">
        <ele>879</ele>
        <time>2019-05-06T13:57:22Z</time>
      </trkpt>
      <trkpt lat="48.00132" lon="7.11635">
        <ele>861</ele>
        <time>2019-05-06T13:58:22Z</time>
      </trkpt>
      <trkpt lat="48.00161" lon="7.11451">
        <ele>860</ele>
        <time>2019-05-06T13:59:22Z</time>
      </trkpt>
      <trkpt lat="48.00155" lon="7.11257">
        <ele>868</ele>
        <time>2019-05-06T14:00:22Z</time>
      </trkpt>
      <trkpt lat="48.00305" lon="7.10923">
        <ele>876</ele>
        <time>2019-05-06T14:01:22Z</time>
      </trkpt>
      <trkpt lat="48.00356" lon="7.10717">
        <ele>889</ele>
        <time>2019-05-06T14:02:22Z</time>
      </trkpt>
      <trkpt lat="48.00083" lon="7.10597">
        <ele>920</ele>
        <time>2019-05-06T14:03:22Z</time>
      </trkpt>
      <trkpt lat="47.99848" lon="7.10717">
        <ele>951</ele>
        <time>2019-05-06T14:04:22Z</time>
      </trkpt>
      <trkpt lat="47.99713" lon="7.10609">
        <ele>966</ele>
        <time>2019-05-06T14:05:22Z</time>
      </trkpt>
      <trkpt lat="47.99681" lon="7.10382">
        <ele>980</ele>
        <time>2019-05-06T14:06:22Z</time>
      </trkpt>
      <trkpt lat="47.99684" lon="7.09996">
        <ele>989</ele>
        <time>2019-05-06T14:07:22Z</time>
      </trkpt>
      <trkpt lat="47.99567" lon="7.09961">
        <ele>997</ele>
        <time>2019-05-06T14:08:22Z</time>
      </trkpt>
      <trkpt lat="47.99386" lon="7.10064">
        <ele>1009</ele>
        <time>2019-05-06T14:09:22Z</time>
      </trkpt>
      <trkpt lat="47.99248" lon="7.10073">
        <ele>1013</ele>
        <time>2019-05-06T14:10:22Z</time>
      </trkpt>
      <trkpt lat="47.99179" lon="7.10129">
        <ele>1013</ele>
        <time>2019-05-06T14:11:22Z</time>
      </trkpt>
      <trkpt lat="47.99119" lon="7.1024">
        <ele>1019</ele>
        <time>2019-05-06T14:12:22Z</time>
      </trkpt>
      <trkpt lat="47.99073" lon="7.10395">
        <ele>1031</ele>
        <time>2019-05-06T14:13:22Z</time>
      </trkpt>
      <trkpt lat="47.99021" lon="7.10661">
        <ele>1041</ele>
        <time>2019-05-06T14:14:22Z</time>
      </trkpt>
      <trkpt lat="47.98909" lon="7.10893">
        <ele>1051</ele>
        <time>2019-05-06T14:15:22Z</time>
      </trkpt>
      <trkpt lat="47.98849" lon="7.10931">
        <ele>1045</ele>
        <time>2019-05-06T14:16:22Z</time>
      </trkpt>
      <trkpt lat="47.98826" lon="7.113">
        <ele>1070</ele>
        <time>2019-05-06T14:17:22Z</time>
      </trkpt>
      <trkpt lat="47.98771" lon="7.11485">
        <ele>1091</ele>
        <time>2019-05-06T14:18:22Z</time>
      </trkpt>
      <trkpt lat="47.9865" lon="7.11489">
        <ele>1092</ele>
        <time>2019-05-06T14:19:22Z</time>
      </trkpt>
      <trkpt lat="47.98561" lon="7.11605">
        <ele>1103</ele>
        <time>2019-05-06T14:20:22Z</time>
      </trkpt>
      <trkpt lat="47.98501" lon="7.1173">
        <ele>1115</ele>
        <time>2019-05-06T14:21:22Z</time>
      </trkpt>
      <trkpt lat="47.98444" lon="7.1182">
        <ele>1121</ele>
        <time>2019-05-06T14:22:22Z</time>
      </trkpt>
      <trkpt lat="47.98392" lon="7.11897">
        <ele>1126</ele>
        <time>2019-05-06T14:23:22Z</time>
      </trkpt>
      <trkpt lat="47.98309" lon="7.11944">
        <ele>1131</ele>
        <time>2019-05-06T14:24:22Z</time>
      </trkpt>
      <trkpt lat="47.98286" lon="7.11923">
        <ele>1127</ele>
        <time>2019-05-06T14:25:22Z</time>
      </trkpt>
      <trkpt lat="47.98156" lon="7.11978">
        <ele>1140</ele>
        <time>2019-05-06T14:26:22Z</time>
      </trkpt>
      <trkpt lat="47.98334" lon="7.12047">
        <ele>1157</ele>
        <time>2019-05-06T14:27:22Z</time>
      </trkpt>
      <trkpt lat="47.98435" lon="7.12021">
        <ele>1154</ele>
        <time>2019-05-06T14:28:22Z</time>
      </trkpt>
      <trkpt lat="47.98512" lon="7.12051">
        <ele>1160</ele>
        <time>2019-05-06T14:29:22Z</time>
      </trkpt>
      <trkpt lat="47.98518" lon="7.12103">
        <ele>1161</ele>
        <time>2019-05-06T14:30:22Z</time>
      </trkpt>
      <trkpt lat="47.98214" lon="7.12197">
        <ele>1192</ele>
        <time>2019-05-06T14:31:22Z</time>
      </trkpt>
      <trkpt lat="47.98076" lon="7.12227">
        <ele>1202</ele>
        <time>2019-05-06T14:32:22Z</time>
      </trkpt>
      <trkpt lat="47.9803" lon="7.1221">
        <ele>1203</ele>
        <time>2019-05-06T14:33:22Z</time>
      </trkpt>
      <trkpt lat="47.97855" lon="7.11875">
        <ele>1200</ele>
        <time>2019-05-06T14:34:22Z</time>
      </trkpt>
      <trkpt lat="47.97912" lon="7.11438">
        <ele>1181</ele>
        <time>2019-05-06T14:35:22Z</time>
      </trkpt>
      <trkpt lat="47.97777" lon="7.10983">
        <ele>1187</ele>
        <time>2019-05-06T14:36:22Z</time>
      </trkpt>
      <trkpt lat="47.97418" lon="7.09901">
        <ele>1058</ele>
        <time>2019-05-06T14:37:22Z</time>
      </trkpt>
      <trkpt lat="47.97636" lon="7.09996">
        <ele>1049</ele>
        <time>2019-05-06T14:38:22Z</time>
      </trkpt>
      <trkpt lat="47.97837" lon="7.09983">
        <ele>1038</ele>
        <time>2019-05-06T14:39:22Z</time>
      </trkpt>
      <trkpt lat="47.97912" lon="7.09996">
        <ele>1033</ele>
        <time>2019-05-06T14:40:22Z</time>
      </trkpt>
      <trkpt lat="47.97967" lon="7.1006">
        <ele>1034</ele>
        <time>2019-05-06T14:41:22Z</time>
      </trkpt>
      <trkpt lat="47.98024" lon="7.10215">
        <ele>1031</ele>
        <time>2019-05-06T14:42:22Z</time>
      </trkpt>
      <trkpt lat="47.98036" lon="7.10361">
        <ele>1038</ele>
        <time>2019-05-06T14:43:22Z</time>
      </trkpt>
      <trkpt lat="47.98133" lon="7.10725">
        <ele>1037</ele>
        <time>2019-05-06T14:44:22Z</time>
      </trkpt>
      <trkpt lat="47.98145" lon="7.10876">
        <ele>1036</ele>
        <time>2019-05-06T14:45:22Z</time>
      </trkpt>
      <trkpt lat="47.98125" lon="7.11013">
        <ele>1040</ele>
        <time>2019-05-06T14:46:22Z</time>
      </trkpt>
      <trkpt lat="47.98136" lon="7.11069">
        <ele>1033</ele>
        <time>2019-05-06T14:47:22Z</time>
      </trkpt>
      <trkpt lat="47.98185" lon="7.10906">
        <ele>1013</ele>
        <time>2019-05-06T14:48:22Z</time>
      </trkpt>
      <trkpt lat="47.98188" lon="7.10773">
        <ele>1015</ele>
        <time>2019-05-06T14:49:22Z</time>
      </trkpt>
      <trkpt lat="47.98176" lon="7.10545">
        <ele>998</ele>
        <time>2019-05-06T14:50:22Z</time>
      </trkpt>
      <trkpt lat="47.98122" lon="7.103">
        <ele>992</ele>
        <time>2019-05-06T14:51:22Z</time>
      </trkpt>
      <trkpt lat="47.98062" lon="7.09961">
        <ele>981</ele>
        <time>2019-05-06T14:52:22Z</time>
      </trkpt>
      <trkpt lat="47.98076" lon="7.09841">
        <ele>973</ele>
        <time>2019-05-06T14:53:22Z</time>
      </trkpt>
      <trkpt lat="47.98044" lon="7.0979">
        <ele>970</ele>
        <time>2019-05-06T14:54:22Z</time>
      </trkpt>
      <trkpt lat="47.97835" lon="7.09777">
        <ele>978</ele>
        <time>2019-05-06T14:55:22Z</time>
      </trkpt>
      <trkpt lat="47.97544" lon="7.097">
        <ele>1001</ele>
        <time>2019-05-06T14:56:22Z</time>
      </trkpt>
      <trkpt lat="47.97332" lon="7.0964">
        <ele>1026</ele>
        <time>2019-05-06T14:57:22Z</time>
      </trkpt>
      <trkpt lat="47.97134" lon="7.09545">
        <ele>1059</ele>
        <time>2019-05-06T14:58:22Z</time>
      </trkpt>
      <trkpt lat="47.96976" lon="7.09249">
        <ele>1073</ele>
        <time>2019-05-06T14:59:22Z</time>
      </trkpt>
      <trkpt lat="47.96941" lon="7.09146">
        <ele>1079</ele>
        <time>2019-05-06T15:00:22Z</time>
      </trkpt>
      <trkpt lat="47.96924" lon="7.09052">
        <ele>1081</ele>
        <time>2019-05-06T15:01:22Z</time>
      </trkpt>
      <trkpt lat="47.96909" lon="7.0891">
        <ele>1085</ele>
        <time>2019-05-06T15:02:22Z</time>
      </trkpt>
      <trkpt lat="47.96915" lon="7.08811">
        <ele>1085</ele>
        <time>2019-05-06T15:03:22Z</time>
      </trkpt>
      <trkpt lat="47.96938" lon="7.08665">
        <ele>1087</ele>
        <time>2019-05-06T15:04:22Z</time>
      </trkpt>
      <trkpt lat="47.9699" lon="7.08554">
        <ele>1086</ele>
        <time>2019-05-06T15:05:22Z</time>
      </trkpt>
      <trkpt lat="47.9703" lon="7.08511">
        <ele>1084</ele>
        <time>2019-05-06T15:06:22Z</time>
      </trkpt>
      <trkpt lat="47.97088" lon="7.08477">
        <ele>1083</ele>
        <time>2019-05-06T15:07:22Z</time>
      </trkpt>
      <trkpt lat="47.97154" lon="7.08447">
        <ele>1087</ele>
        <time>2019-05-06T15:08:22Z</time>
      </trkpt>
      <trkpt lat="47.97251" lon="7.08464">
        <ele>1076</ele>
        <time>2019-05-06T15:09:22Z</time>
      </trkpt>
      <trkpt lat="47.97349" lon="7.08125">
        <ele>1075</ele>
        <time>2019-05-06T15:10:22Z</time>
      </trkpt>
      <trkpt lat="47.97366" lon="7.08004">
        <ele>1069</ele>
        <time>2019-05-06T15:11:22Z</time>
      </trkpt>
      <trkpt lat="47.97369" lon="7.07893">
        <ele>1065</ele>
        <time>2019-05-06T15:12:22Z</time>
      </trkpt>
      <trkpt lat="47.97363" lon="7.07786">
        <ele>1059</ele>
        <time>2019-05-06T15:13:22Z</time>
      </trkpt>
      <trkpt lat="47.97346" lon="7.07708">
        <ele>1055</ele>
        <time>2019-05-06T15:14:22Z</time>
      </trkpt>
      <trkpt lat="47.97297" lon="7.07618">
        <ele>1049</ele>
        <time>2019-05-06T15:15:22Z</time>
      </trkpt>
      <trkpt lat="47.97223" lon="7.07567">
        <ele>1048</ele>
        <time>2019-05-06T15:16:22Z</time>
      </trkpt>
      <trkpt lat="47.97128" lon="7.07528">
        <ele>1050</ele>
        <time>2019-05-06T15:17:22Z</time>
      </trkpt>
      <trkpt lat="47.97079" lon="7.07511">
        <ele>1051</ele>
        <time>2019-05-06T15:18:22Z</time>
      </trkpt>
      <trkpt lat="47.97016" lon="7.07417">
        <ele>1030</ele>
        <time>2019-05-06T15:19:22Z</time>
      </trkpt>
      <trkpt lat="47.97059" lon="7.07412">
        <ele>1033</ele>
        <time>2019-05-06T15:20:22Z</time>
      </trkpt>
      <trkpt lat="47.97102" lon="7.07451">
        <ele>1037</ele>
        <time>2019-05-06T15:21:22Z</time>
      </trkpt>
      <trkpt lat="47.97168" lon="7.07464">
        <ele>1027</ele>
        <time>2019-05-06T15:22:22Z</time>
      </trkpt>
      <trkpt lat="47.97346" lon="7.07524">
        <ele>1008</ele>
        <time>2019-05-06T15:23:22Z</time>
      </trkpt>
      <trkpt lat="47.97418" lon="7.07567">
        <ele>1002</ele>
        <time>2019-05-06T15:24:22Z</time>
      </trkpt>
      <trkpt lat="47.97507" lon="7.07618">
        <ele>991</ele>
        <time>2019-05-06T15:25:22Z</time>
      </trkpt>
      <trkpt lat="47.97251" lon="7.07335">
        <ele>971</ele>
        <time>2019-05-06T15:26:22Z</time>
      </trkpt>
      <trkpt lat="47.97234" lon="7.07056">
        <ele>936</ele>
        <time>2019-05-06T15:27:22Z</time>
      </trkpt>
      <trkpt lat="47.97254" lon="7.07142">
        <ele>941</ele>
        <time>2019-05-06T15:28:22Z</time>
      </trkpt>
      <trkpt lat="47.9728" lon="7.07206">
        <ele>939</ele>
        <time>2019-05-06T15:29:22Z</time>
      </trkpt>
      <trkpt lat="47.97326" lon="7.07283">
        <ele>936</ele>
        <time>2019-05-06T15:30:22Z</time>
      </trkpt>
      <trkpt lat="47.97381" lon="7.07318">
        <ele>930</ele>
        <time>2019-05-06T15:31:22Z</time>
      </trkpt>
      <trkpt lat="47.97702" lon="7.07421">
        <ele>899</ele>
        <time>2019-05-06T15:32:22Z</time>
      </trkpt>
      <trkpt lat="47.97835" lon="7.07498">
        <ele>888</ele>
        <time>2019-05-06T15:33:22Z</time>
      </trkpt>
      <trkpt lat="47.98039" lon="7.07816">
        <ele>864</ele>
        <time>2019-05-06T15:34:22Z</time>
      </trkpt>
      <trkpt lat="47.98084" lon="7.07949">
        <ele>855</ele>
        <time>2019-05-06T15:35:22Z</time>
      </trkpt>
      <trkpt lat="47.97995" lon="7.08253">
        <ele>879</ele>
        <time>2019-05-06T15:36:22Z</time>
      </trkpt>
      <trkpt lat="47.97918" lon="7.0858">
        <ele>896</ele>
        <time>2019-05-06T15:37:22Z</time>
      </trkpt>
      <trkpt lat="47.97599" lon="7.08717">
        <ele>916</ele>
        <time>2019-05-06T15:38:22Z</time>
      </trkpt>
      <trkpt lat="47.97542" lon="7.08901">
        <ele>916</ele>
        <time>2019-05-06T15:39:22Z</time>
      </trkpt>
      <trkpt lat="47.97335" lon="7.08897">
        <ele>951</ele>
        <time>2019-05-06T15:40:22Z</time>
      </trkpt>
      <trkpt lat="47.97349" lon="7.08957">
        <ele>944</ele>
        <time>2019-05-06T15:41:22Z</time>
      </trkpt>
      <trkpt lat="47.97409" lon="7.09159">
        <ele>935</ele>
        <time>2019-05-06T15:42:22Z</time>
      </trkpt>
      <trkpt lat="47.97458" lon="7.09309">
        <ele>923</ele>
        <time>2019-05-06T15:43:22Z</time>
      </trkpt>
      <trkpt lat="47.97504" lon="7.09352">
        <ele>912</ele>
        <time>2019-05-06T15:44:22Z</time>
      </trkpt>
      <trkpt lat="47.97717" lon="7.09425">
        <ele>897</ele>
        <time>2019-05-06T15:45:22Z</time>
      </trkpt>
      <trkpt lat="47.97958" lon="7.09468">
        <ele>884</ele>
        <time>2019-05-06T15:46:22Z</time>
      </trkpt>
      <trkpt lat="47.98156" lon="7.09378">
        <ele>848</ele>
        <time>2019-05-06T15:47:22Z</time>
      </trkpt>
      <trkpt lat="47.98375" lon="7.09554">
        <ele>876</ele>
        <time>2019-05-06T15:48:22Z</time>
      </trkpt>
      <trkpt lat="47.98153" lon="7.0991">
        <ele>936</ele>
        <time>2019-05-06T15:49:22Z</time>
      </trkpt>
      <trkpt lat="47.98191" lon="7.10146">
        <ele>940</ele>
        <time>2019-05-06T15:50:22Z</time>
      </trkpt>
      <trkpt lat="47.9826" lon="7.10348">
        <ele>928</ele>
        <time>2019-05-06T15:51:22Z</time>
      </trkpt>
      <trkpt lat="47.98375" lon="7.10451">
        <ele>901</ele>
        <time>2019-05-06T15:52:22Z</time>
      </trkpt>
      <trkpt lat="47.98389" lon="7.10627">
        <ele>913</ele>
        <time>2019-05-06T15:53:22Z</time>
      </trkpt>
      <trkpt lat="47.98446" lon="7.10408">
        <ele>874</ele>
        <time>2019-05-06T15:54:22Z</time>
      </trkpt>
      <trkpt lat="47.9838" lon="7.09949">
        <ele>843</ele>
        <time>2019-05-06T15:55:22Z</time>
      </trkpt>
      <trkpt lat="47.98446" lon="7.10026">
        <ele>841</ele>
        <time>2019-05-06T15:56:22Z</time>
      </trkpt>
      <trkpt lat="47.98444" lon="7.09914">
        <ele>830</ele>
        <time>2019-05-06T15:57:22Z</time>
      </trkpt>
      <trkpt lat="47.98475" lon="7.09828">
        <ele>819</ele>
        <time>2019-05-06T15:58:22Z</time>
      </trkpt>
      <trkpt lat="47.98507" lon="7.09725">
        <ele>803</ele>
        <time>2019-05-06T15:59:22Z</time>
      </trkpt>
      <trkpt lat="47.98627" lon="7.09532">
        <ele>776</ele>
        <time>2019-05-06T16:00:22Z</time>
      </trkpt>
      <trkpt lat="47.98599" lon="7.09292">
        <ele>741</ele>
        <time>2019-05-06T16:01:22Z</time>
      </trkpt>
      <trkpt lat="47.98481" lon="7.09129">
        <ele>712</ele>
        <time>2019-05-06T16:02:22Z</time>
      </trkpt>
      <trkpt lat="47.984" lon="7.09077">
        <ele>700</ele>
        <time>2019-05-06T16:03:22Z</time>
      </trkpt>
      <trkpt lat="47.98481" lon="7.09017">
        <ele>699</ele>
        <time>2019-05-06T16:04:22Z</time>
      </trkpt>
      <trkpt lat="47.98607" lon="7.08545">
        <ele>675</ele>
        <time>2019-05-06T16:05:22Z</time>
      </trkpt>
      <trkpt lat="47.98728" lon="7.08339">
        <ele>652</ele>
        <time>2019-05-06T16:06:22Z</time>
      </trkpt>
      <trkpt lat="47.989" lon="7.08318">
        <ele>633</ele>
        <time>2019-05-06T16:07:22Z</time>
      </trkpt>
      <trkpt lat="47.99035" lon="7.08395">
        <ele>643</ele>
        <time>2019-05-06T16:08:22Z</time>
      </trkpt>
      <trkpt lat="47.99162" lon="7.08532">
        <ele>656</ele>
        <time>2019-05-06T16:09:22Z</time>
      </trkpt>
      <trkpt lat="47.99144" lon="7.08408">
        <ele>647</ele>
        <time>2019-05-06T16:10:22Z</time>
      </trkpt>
      <trkpt lat="47.99187" lon="7.08369">
        <ele>648</ele>
        <time>2019-05-06T16:11:22Z</time>
      </trkpt>
      <trkpt lat="47.9919" lon="7.08481">
        <ele>662</ele>
        <time>2019-05-06T16:12:22Z</time>
      </trkpt>
      <trkpt lat="47.99231" lon="7.0858">
        <ele>681</ele>
        <time>2019-05-06T16:13:22Z</time>
      </trkpt>
      <trkpt lat="47.99233" lon="7.08743">
        <ele>699</ele>
        <time>2019-05-06T16:14:22Z</time>
      </trkpt>
      <trkpt lat="47.99251" lon="7.08816">
        <ele>703</ele>
        <time>2019-05-06T16:15:22Z</time>
      </trkpt>
      <trkpt lat="47.99285" lon="7.0894">
        <ele>728</ele>
        <time>2019-05-06T16:16:22Z</time>
      </trkpt>
      <trkpt lat="47.99277" lon="7.08721">
        <ele>712</ele>
        <time>2019-05-06T16:17:22Z</time>
      </trkpt>
      <trkpt lat="47.99299" lon="7.08584">
        <ele>707</ele>
        <time>2019-05-06T16:18:22Z</time>
      </trkpt>
      <trkpt lat="47.99371" lon="7.08588">
        <ele>730</ele>
        <time>2019-05-06T16:19:22Z</time>
      </trkpt>
      <trkpt lat="47.99417" lon="7.08545">
        <ele>732</ele>
        <time>2019-05-06T16:20:22Z</time>
      </trkpt>
      <trkpt lat="47.99463" lon="7.08485">
        <ele>731</ele>
        <time>2019-05-06T16:21:22Z</time>
      </trkpt>
      <trkpt lat="47.99523" lon="7.08412">
        <ele>729</ele>
        <time>2019-05-06T16:22:22Z</time>
      </trkpt>
      <trkpt lat="47.99615" lon="7.08442">
        <ele>744</ele>
        <time>2019-05-06T16:23:22Z</time>
      </trkpt>
      <trkpt lat="47.99727" lon="7.08421">
        <ele>746</ele>
        <time>2019-05-06T16:24:22Z</time>
      </trkpt>
      <trkpt lat="47.99905" lon="7.08292">
        <ele>747</ele>
        <time>2019-05-06T16:25:22Z</time>
      </trkpt>
      <trkpt lat="48.00086" lon="7.08258">
        <ele>736</ele>
        <time>2019-05-06T16:26:22Z</time>
      </trkpt>
      <trkpt lat="48.0021" lon="7.08429">
        <ele>755</ele>
        <time>2019-05-06T16:27:22Z</time>
      </trkpt>
      <trkpt lat="48.00517" lon="7.08592">
        <ele>766</ele>
        <time>2019-05-06T16:28:22Z</time>
      </trkpt>
      <trkpt lat="48.00597" lon="7.08717">
        <ele>777</ele>
        <time>2019-05-06T16:29:22Z</time>
      </trkpt>
      <trkpt lat="48.00928" lon="7.0894">
        <ele>757</ele>
        <time>2019-05-06T16:30:22Z</time>
      </trkpt>
      <trkpt lat="48.01005" lon="7.08781">
        <ele>769</ele>
        <time>2019-05-06T16:31:22Z</time>
      </trkpt>
      <trkpt lat="48.00928" lon="7.08562">
        <ele>773</ele>
        <time>2019-05-06T16:32:22Z</time>
      </trkpt>
      <trkpt lat="48.01106" lon="7.08734">
        <ele>723</ele>
        <time>2019-05-06T16:33:22Z</time>
      </trkpt>
      <trkpt lat="48.01177" lon="7.08966">
        <ele>706</ele>
        <time>2019-05-06T16:34:22Z</time>
      </trkpt>
      <trkpt lat="48.01373" lon="7.09202">
        <ele>641</ele>
        <time>2019-05-06T16:35:22Z</time>
      </trkpt>
      <trkpt lat="48.01473" lon="7.0918">
        <ele>637</ele>
        <time>2019-05-06T16:36:22Z</time>
      </trkpt>
      <trkpt lat="48.01482" lon="7.0903">
        <ele>637</ele>
        <time>2019-05-06T16:37:22Z</time>
      </trkpt>
      <trkpt lat="48.01608" lon="7.09125">
        <ele>624</ele>
        <time>2019-05-06T16:38:22Z</time>
      </trkpt>
      <trkpt lat="48.01743" lon="7.08936">
        <ele>607</ele>
        <time>2019-05-06T16:39:22Z</time>
      </trkpt>
      <trkpt lat="48.01663" lon="7.08751">
        <ele>614</ele>
        <time>2019-05-06T16:40:22Z</time>
      </trkpt>
      <trkpt lat="48.01505" lon="7.08734">
        <ele>621</ele>
        <time>2019-05-06T16:41:22Z</time>
      </trkpt>
      <trkpt lat="48.01373" lon="7.08652">
        <ele>622</ele>
        <time>2019-05-06T16:42:22Z</time>
      </trkpt>
      <trkpt lat="48.01289" lon="7.08421">
        <ele>602</ele>
        <time>2019-05-06T16:43:22Z</time>
      </trkpt>
      <trkpt lat="48.01258" lon="7.08271">
        <ele>608</ele>
        <time>2019-05-06T16:44:22Z</time>
      </trkpt>
      <trkpt lat="48.01321" lon="7.08245">
        <ele>607</ele>
        <time>2019-05-06T16:45:22Z</time>
      </trkpt>
      <trkpt lat="48.01376" lon="7.08313">
        <ele>599</ele>
        <time>2019-05-06T16:46:22Z</time>
      </trkpt>
      <trkpt lat="48.01505" lon="7.08296">
        <ele>595</ele>
        <time>2019-05-06T16:47:22Z</time>
      </trkpt>
      <trkpt lat="48.0149" lon="7.08223">
        <ele>596</ele>
        <time>2019-05-06T16:48:22Z</time>
      </trkpt>
      <trkpt lat="48.01413" lon="7.08202">
        <ele>602</ele>
        <time>2019-05-06T16:49:22Z</time>
      </trkpt>
      <trkpt lat="48.01358" lon="7.0818">
        <ele>606</ele>
        <time>2019-05-06T16:50:22Z</time>
      </trkpt>
      <trkpt lat="48.01269" lon="7.08073">
        <ele>612</ele>
        <time>2019-05-06T16:51:22Z</time>
      </trkpt>
      <trkpt lat="48.01134" lon="7.07962">
        <ele>625</ele>
        <time>2019-05-06T16:52:22Z</time>
      </trkpt>
      <trkpt lat="48.00985" lon="7.07901">
        <ele>629</ele>
        <time>2019-05-06T16:53:22Z</time>
      </trkpt>
      <trkpt lat="48.00867" lon="7.0797">
        <ele>645</ele>
        <time>2019-05-06T16:54:22Z</time>
      </trkpt>
      <trkpt lat="48.00793" lon="7.0806">
        <ele>646</ele>
        <time>2019-05-06T16:55:22Z</time>
      </trkpt>
      <trkpt lat="48.00715" lon="7.08163">
        <ele>641</ele>
        <time>2019-05-06T16:56:22Z</time>
      </trkpt>
      <trkpt lat="48.00715" lon="7.08004">
        <ele>622</ele>
        <time>2019-05-06T16:57:22Z</time>
      </trkpt>
      <trkpt lat="48.00738" lon="7.07756">
        <ele>603</ele>
        <time>2019-05-06T16:58:22Z</time>
      </trkpt>
      <trkpt lat="48.01111" lon="7.07687">
        <ele>545</ele>
        <time>2019-05-06T16:59:22Z</time>
      </trkpt>
      <trkpt lat="48.00824" lon="7.0761">
        <ele>579</ele>
        <time>2019-05-06T17:00:22Z</time>
      </trkpt>
      <trkpt lat="48.00689" lon="7.07592">
        <ele>567</ele>
        <time>2019-05-06T17:01:22Z</time>
      </trkpt>
      <trkpt lat="48.00824" lon="7.07481">
        <ele>543</ele>
        <time>2019-05-06T17:02:22Z</time>
      </trkpt>
      <trkpt lat="48.01005" lon="7.07524">
        <ele>526</ele>
        <time>2019-05-06T17:03:22Z</time>
      </trkpt>
      <trkpt lat="48.0114" lon="7.07545">
        <ele>509</ele>
        <time>2019-05-06T17:04:22Z</time>
      </trkpt>
      <trkpt lat="48.01246" lon="7.07558">
        <ele>489</ele>
        <time>2019-05-06T17:05:22Z</time>
      </trkpt>
      <trkpt lat="48.01255" lon="7.07374">
        <ele>480</ele>
        <time>2019-05-06T17:06:22Z</time>
      </trkpt>
      <trkpt lat="48.01424" lon="7.07391">
        <ele>474</ele>
        <time>2019-05-06T17:07:22Z</time>
      </trkpt>
      <trkpt lat="48.01574" lon="7.07683">
        <ele>469</ele>
        <time>2019-05-06T17:08:22Z</time>
      </trkpt>
      <trkpt lat="48.01576" lon="7.07738">
        <ele>473</ele>
        <time>2019-05-06T17:09:22Z</time>
      </trkpt>
      <trkpt lat="48.0162" lon="7.07816">
        <ele>479</ele>
        <time>2019-05-06T17:10:22Z</time>
      </trkpt>
      <trkpt lat="48.01691" lon="7.07876">
        <ele>477</ele>
        <time>2019-05-06T17:11:22Z</time>
      </trkpt>
      <trkpt lat="48.01772" lon="7.07983">
        <ele>473</ele>
        <time>2019-05-06T17:12:22Z</time>
      </trkpt>
      <trkpt lat="48.01852" lon="7.08039">
        <ele>467</ele>
        <time>2019-05-06T17:13:22Z</time>
      </trkpt>
      <trkpt lat="48.0203" lon="7.08198">
        <ele>470</ele>
        <time>2019-05-06T17:14:22Z</time>
      </trkpt>
      <trkpt lat="48.02125" lon="7.08326">
        <ele>466</ele>
        <time>2019-05-06T17:15:22Z</time>
      </trkpt>
      <trkpt lat="48.02228" lon="7.08271">
        <ele>457</ele>
        <time>2019-05-06T17:16:22Z</time>
      </trkpt>
      <trkpt lat="48.02314" lon="7.08288">
        <ele>459</ele>
        <time>2019-05-06T17:17:22Z</time>
      </trkpt>
      <trkpt lat="48.02495" lon="7.0888">
        <ele>450</ele>
        <time>2019-05-06T17:18:22Z</time>
      </trkpt>
      <trkpt lat="48.02475" lon="7.0903">
        <ele>443</ele>
        <time>2019-05-06T17:19:22Z</time>
      </trkpt>
      <trkpt lat="48.02501" lon="7.09172">
        <ele>442</ele>
        <time>2019-05-06T17:20:22Z</time>
      </trkpt>
      <trkpt lat="48.02481" lon="7.09373">
        <ele>440</ele>
        <time>2019-05-06T17:21:22Z</time>
      </trkpt>
      <trkpt lat="48.02506" lon="7.09584">
        <ele>437</ele>
        <time>2019-05-06T17:22:22Z</time>
      </trkpt>
      <trkpt lat="48.02484" lon="7.09644">
        <ele>436</ele>
        <time>2019-05-06T17:23:22Z</time>
      </trkpt>
      <trkpt lat="48.02466" lon="7.09674">
        <ele>436</ele>
        <time>2019-05-06T17:24:22Z</time>
      </trkpt>
      <trkpt lat="48.02484" lon="7.09721">
        <ele>435</ele>
        <time>2019-05-06T17:25:22Z</time>
      </trkpt>
      <trkpt lat="48.02506" lon="7.09828">
        <ele>432</ele>
        <time>2019-05-06T17:26:22Z</time>
      </trkpt>
      <trkpt lat="48.02573" lon="7.09983">
        <ele>429</ele>
        <time>2019-05-06T17:27:22Z</time>
      </trkpt>
      <trkpt lat="48.02469" lon="7.09991">
        <ele>428</ele>
        <time>2019-05-06T17:28:22Z</time>
      </trkpt>
    </trkseg>
  </trk>
</gpx>